Weather Forecast for Dubai Airport  
Thursday, February 22, 2018 (02:29 UTC)
Dubai International Airport
Last Updated: 22-02-2018 (02:25Z)
Wind Dir/Speed: ESE at 2 KT
Temperature: 19.1 °C
Rel. Humidity: 78 %
Pressure: 1011.6 hPa
Visibility: 8000 m
  • METAR OMDB 220230Z 14004KT 080V170 8000 NSC 19/15 Q1011 NOSIG=
NEXT 5 DAY FORECAST (OMDB): as on 22-February-2018
THURSDAY
HIGH:
27 °C
LOW:
18 °C
FRIDAY
HIGH:
30 °C
LOW:
19 °C
SATURDAY
HIGH:
29 °C
LOW:
21 °C
SUNDAY
HIGH:
26 °C
LOW:
19 °C
MONDAY
HIGH:
28 °C
LOW:
19 °C

DUBAI AIRPORT WEATHER FORECAST FOR 30 HOUR:
DUBAI TAF:
TAF OMDB 212303Z 2200/2306 10005KT 8000 NSC 
 PROB30 2201/2204 4000 HZ 
 BECMG 2208/2210 29010KT 
 BECMG 2215/2217 16005KT=
VALID FROM:
2018-02-22 00:00Z
VALID TILL:
2018-02-23 06:00Z
SURFACE WIND:
E'LY 05KT

BECOMING WNW'LY 10KT FROM 0800Z-1000Z TODAY

BECOMING SSE'LY 05KT FROM 1500Z-1700Z TODAY.
VISIBILITY:
07-09 KM,
30% PROBABILITY OF 4000 M BETWEEN 0100Z-0400Z TODAY.
WEATHER:
FINE,
30% PROBABILITY OF HAZE BETWEEN 0100Z-0400Z TODAY.
CLOUD:
NIL SIGNIFICANT.
TEMPERATURE:
MIN TEMPERATURE 18°C AROUND 0330Z TODAY

MAX TEMPERATURE 27°C AROUND 0900Z TODAY

MIN TEMPERATURE 19°C AROUND 0330Z FRIDAY.
HUMIDITY:
MAX HUMIDITY 85% AROUND 0330Z TODAY

MIN HUMIDITY 40% AROUND 0900Z TODAY

MAX HUMIDITY 80% AROUND 0330Z FRIDAY.
WIND SHEAR:
NIL SIGNIFICANT.
TEMPERATURE INVERSION:
NIL SIGNIFICANT.
COMMENTS:
NIL.